Historyczne dane pomiarowe

Dodano dane terminowe – wersja testowa.

Dane z okresu 1951-2019

Wersja bazy: 1.34 [2019-03-16, lista zmian], aktualizacja planowana na 2019-04-15

Dane meteo z obszaru Polski uzyskane na podstawie danych udostępnionych przez Instytut Meteorologii i Gospodarki Wodnej – Państwowy Instytut Badawczy.

 

Wybierz Datę:    

       

TemperaturaWilgotnośćWiatrCiśnienieOpadyŚniegCzas trwania zjawisk
 Stacja t tx tn tng RH VA  wxwx mslp ppp RRR   cm mm wxwxwxwxwxwxwx
1999-08-14 16.4 21.7 11.3 9.9 70.0- 7.3 2.3---- 0.1------------
1999-08-13 17.3 21.4 14.3 13.5 71.3- 6.3 1.7---- 0.0------------
1999-08-12 17.2 21.4 14.3 12.0 69.8- 5.0 2.3---- 0.1------------
1999-08-11 21.2 25.9 17.7 14.0 72.5- 1.7 3.0---- 0.1------------
1999-08-10 21.8 28.1 16.5 12.3 70.5- 5.7 1.0---- 3.6------------
1999-08-09 24.0 29.7 20.3 16.5 64.3- 6.3 2.0---- 0.1------------
1999-08-08 22.7 29.0 17.9 14.2 85.0- 3.0 0.3---- 0.7------------
1999-08-07 22.6 29.5 16.2 10.5 58.3- 0.7 1.0---- 11.8------------
1999-08-06 22.0 26.4 18.8 12.7 62.8- 6.7 1.0---- 0.0------------
1999-08-05 21.3 28.6 14.2 8.9 51.3- 2.3 0.7---- 0.0------------
1999-08-04 19.6 27.4 12.4 7.0 54.8- 1.0 0.7---- 0.0------------
1999-08-03 19.3 27.1 12.2 6.8 49.3- 1.7 1.7---- 0.0------------
1999-08-02 19.3 27.5 12.3 6.5 48.3- 1.3 1.7---- 0.0------------
1999-08-01 19.4 26.5 12.8 7.7 51.5- 0.0 1.0---- 0.0------------
1999-07-31 20.8 28.0 13.9 8.2 51.0- 2.0 2.7---- 0.0------------
1999-07-30 20.3 26.9 13.7 9.0 58.0- 1.0 1.7---- 0.0------------
1999-07-29 19.5 26.0 12.8 8.5 58.3- 2.3 1.7---- 0.0------------
1999-07-28 18.5 24.2 14.0 10.5 77.8- 5.7 1.7---- 0.8------------
1999-07-27 19.6 24.2 16.0 15.4 63.5- 3.3 1.7---- 0.0------------
1999-07-26 22.2 28.0 16.3 11.7 61.5- 3.0 1.3---- 0.0------------
1999-07-25 20.3 26.5 13.7 9.5 66.8- 4.0 1.0---- 0.0------------
1999-07-24 19.2 23.5 15.0 12.7 72.5- 4.7 1.7---- 0.0------------
1999-07-23 17.8 20.4 14.8 10.9 70.8- 8.0 0.7---- 0.0------------
1999-07-22 20.4 24.0 18.3 15.0 66.8- 6.7 2.3---- 0.0------------
1999-07-21 24.2 29.8 19.7 13.8 63.5- 2.7 2.7---- 2.6------------
1999-07-20 23.5 30.3 15.8 11.0 66.3- 0.7 0.7---- 0.0------------
1999-07-19 23.7 29.4 18.8 14.5 58.5- 6.0 2.3---- 0.0------------
1999-07-18 21.2 26.5 14.2 9.6 58.3- 4.3 1.7---- 0.0------------
1999-07-17 18.8 23.7 12.5 8.0 62.0- 3.0 1.7---- 0.0------------
1999-07-16 17.0 20.8 12.3 9.2 72.8- 3.7 1.7---- 2.2------------
1999-07-15 17.2 22.0 12.8 12.0 79.5- 5.3 2.7---- 0.7------------
1999-07-14 21.8 27.1 18.8 14.6 79.5- 7.0 2.3---- 16.2------------
1999-07-13 23.1 29.6 18.3 13.1 63.8- 7.0 2.0---- 0.0------------
1999-07-12 23.0 29.1 15.4 9.0 55.0- 7.3 2.0---- 0.0------------
1999-07-11 21.5 28.0 13.2 7.6 53.5- 0.0 2.7---- 0.0------------
1999-07-10 21.1 26.0 15.4 11.5 58.0- 0.0 3.3---- 0.0------------
1999-07-09 19.7 25.3 14.7 13.7 78.8- 4.7 1.7---- 0.0------------
1999-07-08 19.2 22.9 16.5 14.3 92.5- 7.7 1.7---- 10.4------------
1999-07-07 21.2 23.4 19.3 16.8 80.3- 8.0 2.0---- 0.0------------
1999-07-06 27.0 33.1 20.1 14.5 59.5- 2.3 1.3---- 0.1------------
1999-07-05 27.4 33.2 21.4 17.0 54.3- 1.7 1.7---- 0.0------------
1999-07-04 24.7 30.6 16.9 11.2 57.5- 1.3 1.3---- 0.0------------
1999-07-03 21.7 26.1 16.4 11.8 71.5- 4.7 1.0---- 0.0------------
1999-07-02 20.8 24.7 17.1 13.1 75.3- 4.7 2.0---- 0.0------------
1999-07-01 21.4 26.2 14.3 9.3 59.5- 2.7 0.7---- 0.0------------
1999-06-30 20.4 25.2 13.6 9.0 65.0- 3.3 0.7---- 0.0------------
1999-06-29 20.3 24.2 16.2 12.8 69.5- 3.0 1.7---- 0.0------------
1999-06-28 22.4 29.0 13.7 8.9 58.0- 1.7 1.3---- 0.0------------
1999-06-27 20.7 26.5 13.7 9.1 61.5- 5.0 1.7---- 0.0------------
1999-06-26 15.6 22.3 5.3 5.1 67.5- 7.0 1.0---- 0.0------------
1999-06-25 14.8 18.1 11.8 10.4 77.5- 7.0 1.0---- 5.2------------
1999-06-24 13.0 15.1 10.9 10.5 88.0- 8.0 0.3---- 1.3------------
1999-06-23 11.3 12.3 10.4 10.4 98.8- 8.0 2.7---- 20.7------------
1999-06-22 13.8 15.3 13.0 13.0 94.0- 8.0 2.7---- 19.8------------
1999-06-21 18.9 23.6 15.9 12.0 84.3- 7.7 1.0---- 10.3------------
1999-06-20 19.6 23.3 16.0 15.3 82.0- 8.0 1.0---- 0.0------------
1999-06-19 20.6 25.3 15.4 13.0 82.0- 5.3 0.7---- 0.0------------
1999-06-18 17.9 20.7 16.4 16.5 94.0- 8.0 1.3---- 14.5------------
1999-06-17 18.7 20.2 16.9 16.0 95.0- 8.0 0.7---- 9.6------------
1999-06-16 19.4 21.2 17.8 17.5 93.0- 8.0 1.3---- 1.5------------
802.3 ms

 

Źródłem pochodzenia danych jest Instytut Meteorologii i Gospodarki Wodnej – Państwowy Instytut Badawczy. Dane Instytutu Meteorologii i Gospodarki Wodnej – Państwowego Instytutu Badawczego zostały przetworzone.

Dane źródłowe można odnaleźć na stronie https://dane.imgw.pl